Time;durP1;ratioP1;P1;durP2;ratioP2;P2;SDS_P1;SDS_P2;PMS_P1;PMS_P2;Temp;Humidity;BMP_temperature;BMP_pressure;BME280_temperature;BME280_humidity;BME280_pressure;Samples;Min_cycle;Max_cycle;Signal;HPM_P1;HPM_P2
2022/02/22 00:00:41;;;;;;;15.52;3.60;;;;;;;4.66;96.52;101521.53;2017402;29;20128;-61
2022/02/22 00:01:41;;;;;;;;;;;;;;;4.57;96.96;101520.75;2017942;29;20029;-61
2022/02/22 00:02:43;;;;;;;18.48;3.22;;;;;;;4.54;97.10;101520.75;2009945;29;19915;-60
2022/02/22 00:03:43;;;;;;;17.63;3.70;;;;;;;4.54;97.44;101520.75;2009925;29;20152;-61
2022/02/22 00:04:45;;;;;;;17.53;4.20;;;;;;;4.53;97.45;101524.22;2010537;29;20021;-60
2022/02/22 00:05:45;;;;;;;21.27;4.22;;;;;;;4.51;96.83;101539.72;2009858;29;20407;-60
2022/02/22 00:06:45;;;;;;;21.47;4.57;;;;;;;4.40;96.69;101538.06;2009956;29;20025;-61
2022/02/22 00:07:46;;;;;;;22.63;4.07;;;;;;;4.33;96.96;101537.25;2010446;29;20428;-60
2022/02/22 00:08:46;;;;;;;17.83;4.23;;;;;;;4.23;97.29;101532.13;2017534;29;20017;-59
2022/02/22 00:09:46;;;;;;;17.90;4.97;;;;;;;4.14;97.49;101531.31;2009899;29;20101;-60
2022/02/22 00:10:46;;;;;;;20.97;4.20;;;;;;;4.05;97.95;101533.06;2010000;29;20488;-61
2022/02/22 00:11:47;;;;;;;20.60;3.87;;;;;;;3.97;97.96;101534.84;2010515;29;20025;-60
2022/02/22 00:12:47;;;;;;;16.80;4.63;;;;;;;3.96;98.70;101541.72;2010586;29;20033;-61
2022/02/22 00:13:48;;;;;;;11.60;3.03;;;;;;;4.03;99.23;101539.94;2010529;29;20037;-60
2022/02/22 00:14:48;;;;;;;22.83;3.85;;;;;;;4.00;99.17;101542.53;2010438;29;20029;-60
2022/02/22 00:15:49;;;;;;;11.20;3.13;;;;;;;3.98;99.04;101552.88;2010457;29;20049;-60
2022/02/22 00:16:55;;;;;;;18.02;3.75;;;;;;;4.02;99.33;101548.56;2010545;29;20026;-60
2022/02/22 00:17:55;;;;;;;17.85;4.10;;;;;;;3.97;99.40;101550.31;2010555;29;20421;-60
2022/02/22 00:18:55;;;;;;;20.67;4.60;;;;;;;4.02;99.48;101553.75;2017511;29;20064;-60
2022/02/22 00:19:56;;;;;;;15.77;3.63;;;;;;;3.97;99.52;101550.31;2017574;29;20033;-60
2022/02/22 00:20:57;;;;;;;17.58;3.40;;;;;;;3.90;99.49;101551.22;2010506;29;20087;-61
2022/02/22 00:21:57;;;;;;;18.67;4.07;;;;;;;3.97;99.69;101552.91;2010488;29;20483;-61
2022/02/22 00:22:57;;;;;;;19.97;3.30;;;;;;;3.88;99.69;101555.50;2010554;29;20052;-60
2022/02/22 00:23:58;;;;;;;18.07;4.50;;;;;;;3.94;100.00;101552.91;2010591;29;20400;-61
2022/02/22 00:24:58;;;;;;;20.10;3.67;;;;;;;3.86;99.86;101553.78;2010481;29;20500;-60
2022/02/22 00:25:58;;;;;;;10.37;3.30;;;;;;;3.89;100.00;101552.03;2010487;29;20112;-60
2022/02/22 00:26:59;;;;;;;14.43;3.33;;;;;;;3.94;100.00;101545.16;2017520;29;20021;-60
2022/02/22 00:27:59;;;;;;;18.57;3.43;;;;;;;3.94;100.00;101547.75;2009824;29;20053;-60
2022/02/22 00:28:59;;;;;;;13.80;2.57;;;;;;;3.83;99.62;101542.63;2009849;29;20301;-60
2022/02/22 00:29:59;;;;;;;8.73;1.77;;;;;;;3.84;100.00;101542.59;2009938;29;20034;-60
2022/02/22 00:31:00;;;;;;;22.63;4.40;;;;;;;3.81;100.00;101540.03;2010691;29;20025;-60
2022/02/22 00:32:00;;;;;;;17.90;2.93;;;;;;;3.91;100.00;101543.47;2010422;29;20033;-60
2022/02/22 00:33:00;;;;;;;16.27;4.10;;;;;;;3.90;100.00;101546.88;2010525;29;20760;-60
2022/02/22 00:34:02;;;;;;;13.13;3.17;;;;;;;3.84;100.00;101550.34;2010456;29;20037;-60
2022/02/22 00:35:02;;;;;;;10.95;3.00;;;;;;;3.90;100.00;101548.63;2010362;29;20032;-60
2022/02/22 00:36:03;;;;;;;16.67;3.65;;;;;;;3.86;100.00;101547.75;2011308;29;20030;-59
2022/02/22 00:37:03;;;;;;;19.92;4.45;;;;;;;3.92;99.94;101558.09;2018997;29;20535;-60
2022/02/22 00:38:04;;;;;;;24.27;4.10;;;;;;;3.84;99.77;101557.25;2019071;29;20037;-59
2022/02/22 00:39:05;;;;;;;16.50;3.33;;;;;;;3.77;99.67;101560.69;2012064;29;20116;-60
2022/02/22 00:40:06;;;;;;;15.65;3.50;;;;;;;3.94;99.81;101561.50;2018935;29;20029;-60
2022/02/22 00:41:06;;;;;;;14.23;3.47;;;;;;;3.83;99.34;101558.97;2018970;29;20041;-60
2022/02/22 00:42:07;;;;;;;9.23;3.00;;;;;;;3.78;99.50;101568.44;2019057;29;20142;-60
2022/02/22 00:43:08;;;;;;;9.97;2.90;;;;;;;3.88;100.00;101565.84;2011998;29;20068;-60
2022/02/22 00:44:09;;;;;;;18.13;3.08;;;;;;;3.81;99.90;101571.03;2011814;29;20029;-60
2022/02/22 00:45:10;;;;;;;22.07;4.10;;;;;;;3.96;99.68;101571.84;2011927;29;20025;-59
2022/02/22 00:46:10;;;;;;;;;;;;;;;3.98;100.00;101578.72;2012232;29;20112;-59
2022/02/22 00:47:10;;;;;;;20.33;4.45;;;;;;;3.82;99.26;101588.22;2011882;29;19912;-59
2022/02/22 00:48:11;;;;;;;10.30;2.57;;;;;;;3.72;99.27;101594.25;2011706;29;20516;-59
2022/02/22 00:49:11;;;;;;;22.63;4.30;;;;;;;3.65;99.50;101585.69;2011909;29;20051;-60
2022/02/22 00:50:12;;;;;;;18.60;3.33;;;;;;;3.66;99.90;101592.56;2018853;29;20116;-59
2022/02/22 00:51:12;;;;;;;15.35;2.95;;;;;;;3.72;100.00;101586.53;2018920;29;20039;-60
2022/02/22 00:52:13;;;;;;;22.70;4.40;;;;;;;3.60;99.66;101585.69;2011828;29;20138;-59
2022/02/22 00:53:13;;;;;;;15.52;3.13;;;;;;;3.50;99.85;101586.56;2011826;29;20150;-59
2022/02/22 00:54:13;;;;;;;14.40;3.40;;;;;;;3.42;100.00;101583.97;2011783;29;20047;-61
2022/02/22 00:55:14;;;;;;;14.23;3.03;;;;;;;3.38;100.00;101586.56;2018808;29;20028;-60
2022/02/22 00:56:14;;;;;;;11.50;3.17;;;;;;;3.32;100.00;101588.28;2018888;29;20029;-61
2022/02/22 00:57:15;;;;;;;15.95;4.85;;;;;;;3.33;100.00;101590.03;2011787;29;20101;-60
2022/02/22 00:58:15;;;;;;;24.27;3.53;;;;;;;3.46;100.00;101600.34;2011806;29;20500;-60
2022/02/22 00:59:15;;;;;;;15.33;3.50;;;;;;;3.41;100.00;101602.03;2011790;29;20026;-60
2022/02/22 01:00:16;;;;;;;17.73;4.20;;;;;;;3.38;100.00;101600.31;2011756;29;20556;-59
2022/02/22 01:01:17;;;;;;;13.15;3.72;;;;;;;3.36;100.00;101604.63;2011753;29;20029;-59
2022/02/22 01:02:17;;;;;;;14.55;3.70;;;;;;;3.41;100.00;101607.19;2011774;29;20037;-60
2022/02/22 01:03:18;;;;;;;17.30;3.80;;;;;;;3.32;100.00;101603.75;2011732;29;20108;-60
2022/02/22 01:04:18;;;;;;;17.87;4.40;;;;;;;3.28;100.00;101606.38;2011715;29;20029;-61
2022/02/22 01:05:18;;;;;;;21.37;4.47;;;;;;;3.39;100.00;101614.09;2011782;29;20476;-61
2022/02/22 01:06:19;;;;;;;22.07;3.43;;;;;;;3.33;100.00;101614.94;2011666;29;20074;-60
2022/02/22 01:07:20;;;;;;;20.90;5.13;;;;;;;3.32;100.00;101619.25;2011729;29;20290;-61
2022/02/22 01:08:20;;;;;;;;;;;;;;;3.37;100.00;101611.50;2011950;29;20124;-61
2022/02/22 01:09:21;;;;;;;20.88;3.58;;;;;;;3.32;100.00;101611.50;2018846;29;19911;-60
2022/02/22 01:10:21;;;;;;;13.48;3.53;;;;;;;3.28;100.00;101612.34;2018824;29;20033;-60
2022/02/22 01:11:22;;;;;;;21.93;3.33;;;;;;;3.26;100.00;101614.09;2011723;29;20033;-60
2022/02/22 01:12:22;;;;;;;21.13;3.07;;;;;;;3.28;100.00;101611.53;2011018;29;20057;-61
2022/02/22 01:13:23;;;;;;;9.27;3.23;;;;;;;3.31;100.00;101607.22;2011115;29;20492;-60
2022/02/22 01:14:23;;;;;;;18.80;4.80;;;;;;;3.34;100.00;101611.50;2011671;29;20029;-60
2022/02/22 01:15:24;;;;;;;12.43;3.27;;;;;;;3.29;100.00;101614.06;2011579;29;20064;-60
2022/02/22 01:16:24;;;;;;;11.50;2.47;;;;;;;3.46;100.00;101601.19;2011592;29;20058;-60
2022/02/22 01:17:24;;;;;;;14.70;3.70;;;;;;;3.51;100.00;101608.94;2011012;29;20048;-60
2022/02/22 01:18:25;;;;;;;11.67;3.10;;;;;;;3.54;100.00;101611.50;2011081;29;20479;-60
2022/02/22 01:19:25;;;;;;;13.20;2.83;;;;;;;3.46;100.00;101610.66;2011566;29;20038;-60
2022/02/22 01:20:25;;;;;;;21.37;3.43;;;;;;;3.46;100.00;101608.06;2011545;29;20068;-60
2022/02/22 01:21:27;;;;;;;14.23;4.30;;;;;;;3.44;100.00;101604.63;2018632;29;20115;-60
2022/02/22 01:22:27;;;;;;;22.13;4.38;;;;;;;3.48;100.00;101614.94;2018694;29;20052;-60
2022/02/22 01:23:27;;;;;;;19.00;4.27;;;;;;;3.37;100.00;101615.81;2011704;29;20317;-61
2022/02/22 01:24:27;;;;;;;18.23;3.87;;;;;;;3.32;100.00;101608.06;2011641;29;20094;-59
2022/02/22 01:25:28;;;;;;;17.27;3.37;;;;;;;3.29;100.00;101606.34;2018709;29;20025;-60
2022/02/22 01:26:29;;;;;;;12.33;3.87;;;;;;;3.31;100.00;101612.38;2018663;29;20045;-60
2022/02/22 01:27:29;;;;;;;9.27;2.28;;;;;;;3.29;100.00;101613.22;2011595;29;20036;-60
2022/02/22 01:28:29;;;;;;;20.77;3.77;;;;;;;3.31;100.00;101617.53;2011541;29;20162;-60
2022/02/22 01:29:30;;;;;;;16.23;3.23;;;;;;;3.25;100.00;101617.50;2011578;29;20025;-60
2022/02/22 01:30:30;;;;;;;10.77;3.45;;;;;;;3.20;100.00;101611.50;2011580;29;20021;-62
2022/02/22 01:31:31;;;;;;;11.73;1.87;;;;;;;3.31;100.00;101612.38;2011541;29;20096;-61
2022/02/22 01:32:31;;;;;;;16.63;2.83;;;;;;;3.31;100.00;101612.38;2011468;29;20017;-60
2022/02/22 01:33:31;;;;;;;17.30;4.13;;;;;;;3.38;100.00;101607.22;2011544;29;20037;-61
2022/02/22 01:34:31;;;;;;;14.63;3.67;;;;;;;3.37;100.00;101610.63;2011565;29;20025;-60
2022/02/22 01:35:32;;;;;;;17.30;3.97;;;;;;;3.32;100.00;101619.25;2011465;29;20032;-61
2022/02/22 01:36:32;;;;;;;14.57;2.70;;;;;;;3.29;100.00;101619.22;2011599;29;20100;-60
2022/02/22 01:37:32;;;;;;;17.97;4.33;;;;;;;3.37;100.00;101620.97;2018503;29;20032;-60
2022/02/22 01:38:33;;;;;;;17.37;3.37;;;;;;;3.35;100.00;101619.25;2018656;29;20305;-60
2022/02/22 01:39:33;;;;;;;19.83;3.07;;;;;;;3.34;100.00;101632.16;2010809;29;20017;-60
2022/02/22 01:40:33;;;;;;;19.97;3.37;;;;;;;3.37;100.00;101624.41;2010898;29;20536;-60
2022/02/22 01:41:39;;;;;;;19.70;3.73;;;;;;;3.30;100.00;101620.97;2011401;29;20026;-61
2022/02/22 01:42:39;;;;;;;18.95;4.88;;;;;;;3.29;100.00;101615.81;2011490;29;20043;-63
2022/02/22 01:43:40;;;;;;;22.30;3.53;;;;;;;3.20;100.00;101619.25;2011510;29;20025;-61
2022/02/22 01:44:40;;;;;;;15.30;2.83;;;;;;;3.19;100.00;101617.53;2010664;29;20563;-60
2022/02/22 01:45:42;;;;;;;11.87;2.93;;;;;;;3.35;100.00;101618.38;2010786;29;20029;-60
2022/02/22 01:46:57;;;;;;;19.58;4.47;;;;;;;3.24;100.00;101613.22;2018483;29;20029;-60
2022/02/22 01:47:57;;;;;;;25.30;4.95;;;;;;;3.27;100.00;101615.81;2010590;29;20054;-60
2022/02/22 01:48:59;;;;;;;21.27;3.90;;;;;;;3.22;100.00;101614.97;2011409;29;20470;-60
2022/02/22 01:49:59;;;;;;;14.40;2.70;;;;;;;3.30;100.00;101615.81;2011371;29;20037;-61
2022/02/22 01:50:59;;;;;;;16.97;3.53;;;;;;;3.25;100.00;101616.66;2018407;29;20033;-59
2022/02/22 01:52:02;;;;;;;13.40;4.03;;;;;;;3.13;100.00;101608.06;2018417;29;20020;-61
2022/02/22 01:53:03;;;;;;;17.67;3.63;;;;;;;3.07;100.00;101608.91;2011318;29;20060;-61
2022/02/22 01:54:03;;;;;;;14.97;3.60;;;;;;;3.02;100.00;101610.63;2011316;29;20143;-60
2022/02/22 01:55:04;;;;;;;20.23;4.20;;;;;;;2.99;100.00;101614.91;2011272;29;20689;-60
2022/02/22 01:56:07;;;;;;;16.92;3.38;;;;;;;2.94;100.00;101610.59;2011335;29;20459;-60
2022/02/22 01:57:08;;;;;;;19.85;3.40;;;;;;;2.88;100.00;101617.47;2011217;29;20033;-60
2022/02/22 01:58:08;;;;;;;19.25;4.20;;;;;;;2.82;100.00;101616.63;2011338;29;20053;-60
2022/02/22 01:59:08;;;;;;;20.93;4.10;;;;;;;2.78;100.00;101617.47;2011306;29;20062;-60
2022/02/22 02:00:10;;;;;;;14.27;3.63;;;;;;;2.78;100.00;101614.88;2011307;29;20104;-60
2022/02/22 02:01:10;;;;;;;17.25;5.43;;;;;;;2.75;100.00;101617.44;2011241;29;20029;-60
2022/02/22 02:02:12;;;;;;;29.03;3.77;;;;;;;2.75;100.00;101627.75;2011214;29;20025;-60
2022/02/22 02:03:16;;;;;;;15.90;3.92;;;;;;;2.75;100.00;101627.75;2011235;29;20032;-59
2022/02/22 02:04:17;;;;;;;20.48;3.47;;;;;;;2.70;100.00;101626.88;2011243;29;20093;-60
2022/02/22 02:05:17;;;;;;;23.33;6.03;;;;;;;2.67;100.00;101621.72;2011256;29;20073;-60
2022/02/22 02:06:18;;;;;;;17.83;4.37;;;;;;;2.66;100.00;101623.44;2018300;29;20080;-60
2022/02/22 02:07:18;;;;;;;12.68;2.95;;;;;;;2.66;100.00;101627.72;2018431;29;20127;-61
2022/02/22 02:08:19;;;;;;;14.90;3.90;;;;;;;2.64;100.00;101630.28;2018265;29;20074;-60
2022/02/22 02:09:19;;;;;;;15.32;4.20;;;;;;;2.65;100.00;101631.16;2018285;29;20161;-60
2022/02/22 02:10:20;;;;;;;22.27;5.37;;;;;;;2.61;100.00;101632.00;2011237;29;20033;-60
2022/02/22 02:11:20;;;;;;;17.17;3.43;;;;;;;2.57;100.00;101633.72;2011246;29;20112;-61
2022/02/22 02:12:20;;;;;;;18.20;3.27;;;;;;;2.54;100.00;101634.53;2011239;29;20067;-60
2022/02/22 02:13:21;;;;;;;16.93;3.63;;;;;;;2.52;100.00;101631.13;2011185;29;20391;-61
2022/02/22 02:14:22;;;;;;;14.98;3.38;;;;;;;2.50;100.00;101632.81;2011279;29;20052;-61
2022/02/22 02:15:22;;;;;;;26.92;5.25;;;;;;;2.49;100.00;101631.09;2011161;29;20030;-61
2022/02/22 02:16:22;;;;;;;16.37;3.50;;;;;;;2.43;100.00;101626.78;2018200;29;20032;-61
2022/02/22 02:17:23;;;;;;;17.13;3.80;;;;;;;2.39;100.00;101624.19;2018270;29;20036;-60
2022/02/22 02:18:23;;;;;;;15.60;2.60;;;;;;;2.37;100.00;101620.75;2011141;29;20029;-61
2022/02/22 02:19:24;;;;;;;22.60;4.33;;;;;;;2.36;100.00;101616.44;2011057;29;20127;-61
2022/02/22 02:20:24;;;;;;;14.68;4.68;;;;;;;2.35;100.00;101617.28;2011112;29;20021;-60
2022/02/22 02:21:26;;;;;;;18.33;4.03;;;;;;;2.31;100.00;101617.28;2011141;29;20506;-61
2022/02/22 02:22:26;;;;;;;22.63;6.15;;;;;;;2.29;100.00;101619.00;2011130;29;20113;-61
2022/02/22 02:23:27;;;;;;;18.13;3.57;;;;;;;2.27;100.00;101625.88;2011173;29;20026;-60
2022/02/22 02:24:28;;;;;;;12.20;3.50;;;;;;;2.24;100.00;101620.69;2011061;29;20040;-61
2022/02/22 02:25:28;;;;;;;22.25;4.93;;;;;;;2.22;100.00;101622.38;2011167;29;20033;-61
2022/02/22 02:26:28;;;;;;;14.33;3.20;;;;;;;2.21;100.00;101620.66;2011114;29;20563;-61
2022/02/22 02:27:29;;;;;;;16.73;3.67;;;;;;;2.20;100.00;101618.97;2018138;29;20041;-61
2022/02/22 02:28:29;;;;;;;14.13;2.63;;;;;;;2.20;100.00;101616.38;2018179;29;20093;-60
2022/02/22 02:29:29;;;;;;;17.03;4.40;;;;;;;2.13;100.00;101622.34;2010413;29;20022;-60
2022/02/22 02:30:29;;;;;;;19.03;3.97;;;;;;;2.13;100.00;101622.34;2010425;29;20076;-61
2022/02/22 02:31:30;;;;;;;19.00;4.70;;;;;;;2.08;100.00;101626.63;2010961;29;20025;-61
2022/02/22 02:32:30;;;;;;;26.20;5.93;;;;;;;2.04;100.00;101624.03;2010989;29;20025;-61
2022/02/22 02:33:30;;;;;;;17.93;4.57;;;;;;;2.01;100.00;101629.16;2010790;29;20484;-60
2022/02/22 02:34:31;;;;;;;22.10;4.37;;;;;;;1.96;100.00;101625.69;2010974;29;20032;-61
2022/02/22 02:35:32;;;;;;;12.63;2.80;;;;;;;1.95;100.00;101629.09;2010966;29;20085;-61
2022/02/22 02:36:34;;;;;;;21.33;4.18;;;;;;;1.94;100.00;101635.09;2018020;29;20612;-61
2022/02/22 02:37:36;;;;;;;12.85;3.13;;;;;;;1.87;100.00;101638.47;2017817;29;20040;-61
2022/02/22 02:38:36;;;;;;;12.90;3.40;;;;;;;1.85;100.00;101637.63;2011011;29;20360;-61
2022/02/22 02:39:36;;;;;;;25.50;5.53;;;;;;;1.87;100.00;101647.06;2011034;29;20033;-60
2022/02/22 02:40:38;;;;;;;15.50;2.83;;;;;;;1.85;100.00;101642.78;2011106;29;20507;-60
2022/02/22 02:41:43;;;;;;;17.20;4.78;;;;;;;1.85;100.00;101640.19;2010993;29;20479;-60
2022/02/22 02:42:44;;;;;;;20.17;4.00;;;;;;;1.80;100.00;101641.03;2011052;29;20037;-61
2022/02/22 02:43:44;;;;;;;15.07;2.97;;;;;;;1.82;100.00;101646.19;2018020;29;20052;-60
2022/02/22 02:44:46;;;;;;;21.17;5.10;;;;;;;1.83;100.00;101639.31;2018119;29;20060;-60
2022/02/22 02:45:46;;;;;;;22.10;4.82;;;;;;;1.85;100.00;101642.78;2010859;29;20388;-60
2022/02/22 02:46:47;;;;;;;15.87;3.73;;;;;;;1.82;100.00;101647.91;2010371;29;20128;-60
2022/02/22 02:47:48;;;;;;;12.60;3.40;;;;;;;1.79;100.00;101644.44;2010243;29;20056;-60
2022/02/22 02:48:48;;;;;;;12.60;3.17;;;;;;;1.79;100.00;101641.88;2011011;29;20448;-60
2022/02/22 02:49:48;;;;;;;14.87;3.43;;;;;;;1.75;100.00;101647.84;2010968;29;20058;-60
2022/02/22 02:50:48;;;;;;;14.67;3.03;;;;;;;1.79;100.00;101643.59;2011062;29;20103;-60
2022/02/22 02:51:49;;;;;;;25.97;5.17;;;;;;;1.80;100.00;101637.59;2010952;29;20460;-60
2022/02/22 02:52:49;;;;;;;13.47;3.53;;;;;;;1.81;100.00;101644.44;2010966;29;20053;-60
2022/02/22 02:53:51;;;;;;;17.60;3.30;;;;;;;1.87;100.00;101641.06;2010917;29;20040;-60
2022/02/22 02:54:54;;;;;;;13.30;3.15;;;;;;;1.88;100.00;101637.66;2010871;29;20548;-60
2022/02/22 02:55:54;;;;;;;15.02;3.50;;;;;;;1.87;100.00;101635.91;2010913;29;20033;-60
2022/02/22 02:56:54;;;;;;;16.27;3.33;;;;;;;1.86;100.00;101634.19;2010904;29;20032;-60
2022/02/22 02:57:54;;;;;;;14.10;3.50;;;;;;;1.84;100.00;101630.78;2010824;29;20460;-60
2022/02/22 02:58:57;;;;;;;24.00;3.67;;;;;;;1.83;100.00;101629.03;2010808;29;20025;-60
2022/02/22 02:59:57;;;;;;;16.45;4.35;;;;;;;1.81;100.00;101636.72;2010819;29;20501;-61
2022/02/22 03:00:58;;;;;;;15.83;4.57;;;;;;;1.84;100.00;101641.06;2010870;29;20045;-60
2022/02/22 03:01:58;;;;;;;18.20;3.42;;;;;;;1.85;100.00;101637.63;2017861;29;20033;-60
2022/02/22 03:02:59;;;;;;;11.87;3.60;;;;;;;1.87;100.00;101638.47;2017911;29;20032;-60
2022/02/22 03:03:59;;;;;;;14.70;3.50;;;;;;;1.87;100.00;101641.94;2010969;29;20507;-59
2022/02/22 03:05:01;;;;;;;18.63;3.70;;;;;;;1.86;100.00;101640.22;2010888;29;20464;-60
2022/02/22 03:06:01;;;;;;;;;;;;;;;1.84;100.00;101657.34;2018216;29;20029;-60
2022/02/22 03:07:01;;;;;;;14.98;3.67;;;;;;;1.82;100.00;101646.19;2010082;29;19911;-60
2022/02/22 03:08:01;;;;;;;22.90;4.70;;;;;;;1.82;100.00;101642.75;2010230;29;20067;-59
2022/02/22 03:09:03;;;;;;;13.40;3.30;;;;;;;1.83;100.00;101640.19;2010750;29;20082;-59
2022/02/22 03:10:04;;;;;;;19.60;4.40;;;;;;;1.82;100.00;101647.91;2010674;29;20041;-60
2022/02/22 03:11:05;;;;;;;11.20;3.22;;;;;;;1.80;100.00;101651.34;2010786;29;20029;-59
2022/02/22 03:12:06;;;;;;;15.50;3.60;;;;;;;1.76;100.00;101644.44;2010764;29;20082;-60
2022/02/22 03:13:06;;;;;;;20.45;4.57;;;;;;;1.73;100.00;101654.69;2010767;29;20060;-60
2022/02/22 03:14:07;;;;;;;17.73;3.53;;;;;;;1.73;100.00;101651.25;2010794;29;20428;-60
2022/02/22 03:15:08;;;;;;;11.25;3.78;;;;;;;1.72;100.00;101652.13;2010758;29;20021;-60
2022/02/22 03:16:09;;;;;;;16.00;3.75;;;;;;;1.71;100.00;101648.66;2010771;29;20037;-60
2022/02/22 03:17:09;;;;;;;20.70;4.30;;;;;;;1.70;100.00;101652.09;2010784;29;20112;-60
2022/02/22 03:18:09;;;;;;;21.70;4.53;;;;;;;1.68;100.00;101653.81;2010738;29;20068;-61
2022/02/22 03:19:11;;;;;;;18.93;4.07;;;;;;;1.69;100.00;101652.97;2010745;29;20029;-60
2022/02/22 03:20:12;;;;;;;13.27;4.20;;;;;;;1.71;100.00;101653.81;2010685;29;20033;-60
2022/02/22 03:21:12;;;;;;;18.43;3.13;;;;;;;1.71;100.00;101656.38;2010751;29;20510;-60
2022/02/22 03:22:13;;;;;;;18.02;4.25;;;;;;;1.71;100.00;101656.38;2010630;29;20028;-60
2022/02/22 03:23:13;;;;;;;18.07;4.30;;;;;;;1.70;100.00;101657.25;2010732;29;20037;-60
2022/02/22 03:24:13;;;;;;;15.18;3.58;;;;;;;1.70;100.00;101656.38;2010740;29;20089;-60
2022/02/22 03:25:14;;;;;;;13.07;3.47;;;;;;;1.71;100.00;101652.97;2010787;29;20032;-60
2022/02/22 03:26:14;;;;;;;18.23;4.40;;;;;;;1.69;100.00;101658.09;2010784;29;20037;-60
2022/02/22 03:27:14;;;;;;;18.50;3.40;;;;;;;1.69;100.00;101652.97;2010804;29;20105;-60
2022/02/22 03:28:15;;;;;;;16.33;3.50;;;;;;;1.66;100.00;101656.38;2010698;29;20109;-59
2022/02/22 03:29:15;;;;;;;15.00;3.50;;;;;;;1.70;100.00;101662.41;2010707;29;20112;-59
2022/02/22 03:30:16;;;;;;;18.73;3.50;;;;;;;1.74;100.00;101671.03;2010692;29;20575;-60
2022/02/22 03:31:16;;;;;;;13.93;3.10;;;;;;;1.74;100.00;101666.72;2010705;29;20256;-60
2022/02/22 03:32:16;;;;;;;15.63;3.40;;;;;;;1.74;100.00;101666.72;2010721;29;20483;-60
2022/02/22 03:33:17;;;;;;;15.43;3.30;;;;;;;1.75;100.00;101665.84;2017755;29;20112;-60
2022/02/22 03:34:17;;;;;;;14.53;3.00;;;;;;;1.76;100.00;101670.19;2017643;29;20539;-61
2022/02/22 03:35:17;;;;;;;24.30;4.03;;;;;;;1.75;100.00;101663.28;2009979;29;20034;-61
2022/02/22 03:36:21;;;;;;;19.00;4.23;;;;;;;1.73;100.00;101659.84;2010079;29;20033;-61
2022/02/22 03:37:21;;;;;;;19.58;3.45;;;;;;;1.74;100.00;101666.72;2009963;29;20017;-61
2022/02/22 03:38:22;;;;;;;12.30;2.93;;;;;;;1.74;100.00;101665.88;2010074;29;20480;-60
2022/02/22 03:39:22;;;;;;;12.57;3.28;;;;;;;1.75;100.00;101676.16;2009983;29;20022;-60
2022/02/22 03:40:23;;;;;;;18.10;3.83;;;;;;;1.76;100.00;101670.19;2010118;29;20122;-60
2022/02/22 03:41:24;;;;;;;18.30;3.85;;;;;;;1.82;100.00;101673.63;2010710;29;20070;-60
2022/02/22 03:42:24;;;;;;;17.65;3.42;;;;;;;1.84;100.00;101674.53;2010577;29;20377;-60
2022/02/22 03:43:24;;;;;;;18.20;3.50;;;;;;;1.87;100.00;101674.53;2010605;29;20041;-59
2022/02/22 03:44:25;;;;;;;14.83;3.60;;;;;;;1.87;100.00;101669.38;2010639;29;20480;-59
2022/02/22 03:45:25;;;;;;;16.90;3.57;;;;;;;1.84;100.00;101666.81;2010644;29;20037;-60
2022/02/22 03:46:26;;;;;;;12.73;4.15;;;;;;;1.84;100.00;101671.94;2010566;29;20038;-60
2022/02/22 03:47:26;;;;;;;11.60;3.47;;;;;;;1.83;100.00;101667.63;2010445;29;20040;-61
2022/02/22 03:48:26;;;;;;;13.17;3.10;;;;;;;1.84;100.00;101674.53;2017601;29;20060;-60
2022/02/22 03:49:27;;;;;;;16.60;3.60;;;;;;;1.86;100.00;101675.38;2009866;29;20033;-60
2022/02/22 03:50:27;;;;;;;20.53;4.27;;;;;;;1.84;100.00;101671.94;2010003;29;20033;-61
2022/02/22 03:51:27;;;;;;;18.33;3.33;;;;;;;1.82;100.00;101674.50;2010509;29;20057;-60
2022/02/22 03:52:28;;;;;;;18.23;4.40;;;;;;;1.85;100.00;101674.50;2017594;29;20400;-60
2022/02/22 03:53:28;;;;;;;17.90;4.10;;;;;;;1.89;100.00;101667.69;2009912;29;20117;-60
2022/02/22 03:54:28;;;;;;;12.87;3.23;;;;;;;1.88;100.00;101668.53;2010029;29;20483;-60
2022/02/22 03:55:29;;;;;;;19.57;3.60;;;;;;;1.88;100.00;101668.53;2010458;29;20436;-60
2022/02/22 03:56:29;;;;;;;16.70;3.37;;;;;;;1.90;100.00;101666.81;2009988;29;20061;-60
2022/02/22 03:57:29;;;;;;;22.20;4.47;;;;;;;1.89;100.00;101662.53;2009958;29;20026;-60
2022/02/22 03:58:29;;;;;;;20.47;4.77;;;;;;;1.88;100.00;101663.41;2017491;29;20040;-60
2022/02/22 03:59:30;;;;;;;13.73;2.90;;;;;;;1.92;100.00;101660.00;2017635;29;20041;-60
2022/02/22 04:00:30;;;;;;;15.23;2.40;;;;;;;1.95;100.00;101660.00;2010574;29;20082;-60
2022/02/22 04:01:30;;;;;;;12.80;3.03;;;;;;;1.94;100.00;101660.84;2010572;29;20108;-60
2022/02/22 04:02:31;;;;;;;15.57;4.30;;;;;;;1.94;100.00;101663.41;2010545;29;20029;-60
2022/02/22 04:03:31;;;;;;;13.87;2.70;;;;;;;2.01;100.00;101667.78;2010541;29;20034;-60
2022/02/22 04:04:31;;;;;;;14.67;2.43;;;;;;;2.03;100.00;101663.50;2010526;29;20552;-61
2022/02/22 04:05:32;;;;;;;11.07;2.87;;;;;;;2.01;100.00;101664.31;2010509;29;20108;-60
2022/02/22 04:06:33;;;;;;;12.93;3.28;;;;;;;1.98;100.00;101665.16;2010498;29;20104;-60
2022/02/22 04:07:35;;;;;;;12.47;3.07;;;;;;;1.95;100.00;101660.00;2010500;29;20022;-60
2022/02/22 04:08:35;;;;;;;14.93;2.80;;;;;;;1.93;100.00;101654.84;2010525;29;20022;-59
2022/02/22 04:09:36;;;;;;;15.93;4.70;;;;;;;1.93;100.00;101656.56;2017485;29;20529;-60
2022/02/22 04:10:36;;;;;;;16.08;3.40;;;;;;;1.90;100.00;101656.53;2018616;29;20506;-59
2022/02/22 04:11:36;;;;;;;21.30;3.43;;;;;;;1.88;100.00;101650.53;2013011;29;20389;-60
2022/02/22 04:12:37;;;;;;;17.10;3.57;;;;;;;1.85;100.00;101653.06;2013292;29;20367;-60
2022/02/22 04:13:38;;;;;;;16.55;3.38;;;;;;;1.82;100.00;101653.03;2013093;29;20112;-60
2022/02/22 04:14:39;;;;;;;13.27;2.67;;;;;;;1.83;100.00;101653.06;2013116;29;20025;-60
2022/02/22 04:15:39;;;;;;;14.57;4.27;;;;;;;1.80;100.00;101661.63;2012965;29;20033;-60
2022/02/22 04:16:39;;;;;;;16.77;3.53;;;;;;;1.78;100.00;101660.75;2013066;29;20076;-60
2022/02/22 04:17:40;;;;;;;13.17;3.60;;;;;;;1.75;100.00;101665.84;2013105;29;20499;-60
2022/02/22 04:18:40;;;;;;;18.63;3.63;;;;;;;1.71;100.00;101671.84;2012575;29;20548;-60
2022/02/22 04:19:40;;;;;;;14.10;3.47;;;;;;;1.71;100.00;101666.69;2012485;29;20082;-60
2022/02/22 04:20:40;;;;;;;17.47;3.40;;;;;;;1.69;100.00;101668.41;2013050;29;20045;-60
2022/02/22 04:21:41;;;;;;;16.77;2.83;;;;;;;1.66;100.00;101673.53;2013070;29;20025;-60
2022/02/22 04:22:41;;;;;;;14.87;3.90;;;;;;;1.65;100.00;101666.66;2012917;29;20032;-61
2022/02/22 04:23:41;;;;;;;15.67;4.10;;;;;;;1.64;100.00;101664.94;2013022;29;20387;-61
2022/02/22 04:24:42;;;;;;;15.63;3.07;;;;;;;1.63;100.00;101658.03;2013136;29;20104;-60
2022/02/22 04:25:42;;;;;;;13.43;3.10;;;;;;;1.63;100.00;101663.19;2013057;29;20022;-60
2022/02/22 04:26:43;;;;;;;16.33;4.23;;;;;;;1.61;100.00;101655.47;2013044;29;20058;-60
2022/02/22 04:27:43;;;;;;;15.60;2.97;;;;;;;1.59;100.00;101653.72;2012996;29;20085;-60
2022/02/22 04:28:43;;;;;;;14.87;4.37;;;;;;;1.59;100.00;101662.31;2013017;29;20117;-60
2022/02/22 04:29:44;;;;;;;13.00;2.73;;;;;;;1.66;100.00;101661.53;2012929;29;20433;-60
2022/02/22 04:30:45;;;;;;;16.67;2.93;;;;;;;1.63;100.00;101665.75;2013017;29;20033;-60
2022/02/22 04:31:45;;;;;;;18.10;3.28;;;;;;;1.58;100.00;101670.03;2012996;29;20293;-60
2022/02/22 04:32:46;;;;;;;13.67;2.63;;;;;;;1.54;100.00;101667.41;2013073;29;20105;-60
2022/02/22 04:33:46;;;;;;;15.45;3.55;;;;;;;1.60;100.00;101673.44;2013050;29;20021;-61
2022/02/22 04:34:48;;;;;;;13.63;4.47;;;;;;;1.60;100.00;101668.31;2019967;29;20379;-59
2022/02/22 04:35:48;;;;;;;19.17;3.25;;;;;;;1.62;100.00;101669.19;2019946;29;20036;-60
2022/02/22 04:36:49;;;;;;;14.57;2.63;;;;;;;1.60;100.00;101668.31;2012991;29;20041;-60
2022/02/22 04:37:49;;;;;;;17.97;2.97;;;;;;;1.62;100.00;101677.78;2013008;29;20036;-60
2022/02/22 04:38:49;;;;;;;21.07;3.03;;;;;;;1.66;100.00;101674.38;2013069;29;20033;-60
2022/02/22 04:39:50;;;;;;;16.87;3.33;;;;;;;1.61;100.00;101676.03;2012986;29;20458;-60